sensor_id;sensor_type;location;lat;lon;timestamp;temperature;humidity
22364;DHT22;11349;53.412;-1.328;2024-01-07T00:02:11;4.90;99.90
22364;DHT22;11349;53.412;-1.328;2024-01-07T00:04:37;5.00;99.90
22364;DHT22;11349;53.412;-1.328;2024-01-07T00:07:04;5.00;99.90
22364;DHT22;11349;53.412;-1.328;2024-01-07T00:09:30;5.00;99.90
22364;DHT22;11349;53.412;-1.328;2024-01-07T00:11:55;4.90;99.90
22364;DHT22;11349;53.412;-1.328;2024-01-07T00:14:21;4.90;99.90
22364;DHT22;11349;53.412;-1.328;2024-01-07T00:16:47;5.00;99.90
22364;DHT22;11349;53.412;-1.328;2024-01-07T00:19:12;5.00;99.90
22364;DHT22;11349;53.412;-1.328;2024-01-07T00:21:38;4.90;99.90
22364;DHT22;11349;53.412;-1.328;2024-01-07T00:24:04;4.90;99.90
22364;DHT22;11349;53.412;-1.328;2024-01-07T00:26:30;4.90;99.90
22364;DHT22;11349;53.412;-1.328;2024-01-07T00:28:56;4.90;99.90
22364;DHT22;11349;53.412;-1.328;2024-01-07T00:31:21;4.70;99.90
22364;DHT22;11349;53.412;-1.328;2024-01-07T00:33:47;4.80;99.90
22364;DHT22;11349;53.412;-1.328;2024-01-07T00:36:13;4.80;99.90
22364;DHT22;11349;53.412;-1.328;2024-01-07T00:38:39;4.80;99.90
22364;DHT22;11349;53.412;-1.328;2024-01-07T00:41:04;4.80;99.90
22364;DHT22;11349;53.412;-1.328;2024-01-07T00:43:30;4.80;99.90
22364;DHT22;11349;53.412;-1.328;2024-01-07T00:45:56;4.80;99.90
22364;DHT22;11349;53.412;-1.328;2024-01-07T00:48:21;4.80;99.90
22364;DHT22;11349;53.412;-1.328;2024-01-07T00:50:47;4.80;99.90
22364;DHT22;11349;53.412;-1.328;2024-01-07T00:53:15;4.70;99.90
22364;DHT22;11349;53.412;-1.328;2024-01-07T00:55:41;4.80;99.90
22364;DHT22;11349;53.412;-1.328;2024-01-07T00:58:07;4.80;99.90
22364;DHT22;11349;53.412;-1.328;2024-01-07T01:00:32;4.70;99.90
22364;DHT22;11349;53.412;-1.328;2024-01-07T01:02:58;4.70;99.90
22364;DHT22;11349;53.412;-1.328;2024-01-07T01:05:24;4.70;99.90
22364;DHT22;11349;53.412;-1.328;2024-01-07T01:07:49;4.70;99.90
22364;DHT22;11349;53.412;-1.328;2024-01-07T01:10:16;4.70;99.90
22364;DHT22;11349;53.412;-1.328;2024-01-07T01:12:43;4.70;99.90
22364;DHT22;11349;53.412;-1.328;2024-01-07T01:15:09;4.70;99.90
22364;DHT22;11349;53.412;-1.328;2024-01-07T01:17:35;4.70;99.90
22364;DHT22;11349;53.412;-1.328;2024-01-07T01:20:04;4.70;99.90
22364;DHT22;11349;53.412;-1.328;2024-01-07T01:22:29;4.70;99.90
22364;DHT22;11349;53.412;-1.328;2024-01-07T01:24:55;4.70;99.90
22364;DHT22;11349;53.412;-1.328;2024-01-07T01:27:21;4.60;99.90
22364;DHT22;11349;53.412;-1.328;2024-01-07T01:29:47;4.60;99.90
22364;DHT22;11349;53.412;-1.328;2024-01-07T01:32:13;4.70;99.90
22364;DHT22;11349;53.412;-1.328;2024-01-07T01:34:40;4.70;99.90
22364;DHT22;11349;53.412;-1.328;2024-01-07T01:37:07;4.60;99.90
22364;DHT22;11349;53.412;-1.328;2024-01-07T01:39:33;4.60;99.90
22364;DHT22;11349;53.412;-1.328;2024-01-07T01:41:58;4.60;99.90
22364;DHT22;11349;53.412;-1.328;2024-01-07T01:44:24;4.60;99.90
22364;DHT22;11349;53.412;-1.328;2024-01-07T01:46:52;4.70;99.90
22364;DHT22;11349;53.412;-1.328;2024-01-07T01:49:18;4.60;99.90
22364;DHT22;11349;53.412;-1.328;2024-01-07T01:51:44;4.60;99.90
22364;DHT22;11349;53.412;-1.328;2024-01-07T01:54:10;4.60;99.90
22364;DHT22;11349;53.412;-1.328;2024-01-07T01:56:36;4.60;99.90
22364;DHT22;11349;53.412;-1.328;2024-01-07T01:59:02;4.60;99.90
22364;DHT22;11349;53.412;-1.328;2024-01-07T02:01:29;4.60;99.90
22364;DHT22;11349;53.412;-1.328;2024-01-07T02:03:57;4.50;99.90
22364;DHT22;11349;53.412;-1.328;2024-01-07T02:06:23;4.60;99.90
22364;DHT22;11349;53.412;-1.328;2024-01-07T02:08:50;4.60;99.90
22364;DHT22;11349;53.412;-1.328;2024-01-07T02:11:21;4.60;99.90
22364;DHT22;11349;53.412;-1.328;2024-01-07T02:13:47;4.60;99.90
22364;DHT22;11349;53.412;-1.328;2024-01-07T02:16:14;4.60;99.90
22364;DHT22;11349;53.412;-1.328;2024-01-07T02:18:41;4.60;99.90
22364;DHT22;11349;53.412;-1.328;2024-01-07T02:21:09;4.50;99.90
22364;DHT22;11349;53.412;-1.328;2024-01-07T02:23:34;4.50;99.90
22364;DHT22;11349;53.412;-1.328;2024-01-07T02:26:00;4.60;99.90
22364;DHT22;11349;53.412;-1.328;2024-01-07T02:28:26;4.50;99.90
22364;DHT22;11349;53.412;-1.328;2024-01-07T02:30:51;4.50;99.90
22364;DHT22;11349;53.412;-1.328;2024-01-07T02:33:17;4.50;99.90
22364;DHT22;11349;53.412;-1.328;2024-01-07T02:35:43;4.50;99.90
22364;DHT22;11349;53.412;-1.328;2024-01-07T02:38:08;4.50;99.90
22364;DHT22;11349;53.412;-1.328;2024-01-07T02:40:34;4.40;99.90
22364;DHT22;11349;53.412;-1.328;2024-01-07T02:43:00;4.30;99.90
22364;DHT22;11349;53.412;-1.328;2024-01-07T02:45:26;4.30;99.90
22364;DHT22;11349;53.412;-1.328;2024-01-07T02:47:51;4.30;99.90
22364;DHT22;11349;53.412;-1.328;2024-01-07T02:50:17;4.30;99.90
22364;DHT22;11349;53.412;-1.328;2024-01-07T02:52:43;4.30;99.90
22364;DHT22;11349;53.412;-1.328;2024-01-07T02:55:09;4.30;99.90
22364;DHT22;11349;53.412;-1.328;2024-01-07T02:57:34;4.30;99.90
22364;DHT22;11349;53.412;-1.328;2024-01-07T03:00:00;4.40;99.90
22364;DHT22;11349;53.412;-1.328;2024-01-07T03:02:26;4.40;99.90
22364;DHT22;11349;53.412;-1.328;2024-01-07T03:04:52;4.30;99.90
22364;DHT22;11349;53.412;-1.328;2024-01-07T03:07:17;4.30;99.90
22364;DHT22;11349;53.412;-1.328;2024-01-07T03:09:43;4.30;99.90
22364;DHT22;11349;53.412;-1.328;2024-01-07T03:12:09;4.30;99.90
22364;DHT22;11349;53.412;-1.328;2024-01-07T03:14:34;4.30;99.90
22364;DHT22;11349;53.412;-1.328;2024-01-07T03:17:00;4.30;99.90
22364;DHT22;11349;53.412;-1.328;2024-01-07T03:19:26;4.30;99.90
22364;DHT22;11349;53.412;-1.328;2024-01-07T03:21:51;4.30;99.90
22364;DHT22;11349;53.412;-1.328;2024-01-07T03:24:17;4.30;99.90
22364;DHT22;11349;53.412;-1.328;2024-01-07T03:26:43;4.30;99.90
22364;DHT22;11349;53.412;-1.328;2024-01-07T03:29:09;4.30;99.90
22364;DHT22;11349;53.412;-1.328;2024-01-07T03:31:34;4.20;99.90
22364;DHT22;11349;53.412;-1.328;2024-01-07T03:34:00;4.20;99.90
22364;DHT22;11349;53.412;-1.328;2024-01-07T03:36:26;4.20;99.90
22364;DHT22;11349;53.412;-1.328;2024-01-07T03:38:51;4.20;99.90
22364;DHT22;11349;53.412;-1.328;2024-01-07T03:41:20;4.20;99.90
22364;DHT22;11349;53.412;-1.328;2024-01-07T03:43:46;4.20;99.90
22364;DHT22;11349;53.412;-1.328;2024-01-07T03:46:12;4.10;99.90
22364;DHT22;11349;53.412;-1.328;2024-01-07T03:48:38;4.10;99.90
22364;DHT22;11349;53.412;-1.328;2024-01-07T03:51:07;4.20;99.90
22364;DHT22;11349;53.412;-1.328;2024-01-07T03:53:33;4.20;99.90
22364;DHT22;11349;53.412;-1.328;2024-01-07T03:55:59;4.20;99.90
22364;DHT22;11349;53.412;-1.328;2024-01-07T03:58:24;4.20;99.90
22364;DHT22;11349;53.412;-1.328;2024-01-07T04:00:50;4.20;99.90
22364;DHT22;11349;53.412;-1.328;2024-01-07T04:03:16;4.20;99.90
22364;DHT22;11349;53.412;-1.328;2024-01-07T04:05:42;4.10;99.90
22364;DHT22;11349;53.412;-1.328;2024-01-07T04:08:11;4.20;99.90
22364;DHT22;11349;53.412;-1.328;2024-01-07T04:10:37;4.10;99.90
22364;DHT22;11349;53.412;-1.328;2024-01-07T04:13:04;4.10;99.90
22364;DHT22;11349;53.412;-1.328;2024-01-07T04:15:30;4.10;99.90
22364;DHT22;11349;53.412;-1.328;2024-01-07T04:17:56;4.10;99.90
22364;DHT22;11349;53.412;-1.328;2024-01-07T04:20:21;4.10;99.90
22364;DHT22;11349;53.412;-1.328;2024-01-07T04:22:47;4.10;99.90
22364;DHT22;11349;53.412;-1.328;2024-01-07T04:25:13;4.10;99.90
22364;DHT22;11349;53.412;-1.328;2024-01-07T04:27:39;4.00;99.90
22364;DHT22;11349;53.412;-1.328;2024-01-07T04:30:05;4.00;99.90
22364;DHT22;11349;53.412;-1.328;2024-01-07T04:32:31;4.00;99.90
22364;DHT22;11349;53.412;-1.328;2024-01-07T04:34:57;4.00;99.90
22364;DHT22;11349;53.412;-1.328;2024-01-07T04:37:24;4.00;99.90
22364;DHT22;11349;53.412;-1.328;2024-01-07T04:39:49;4.00;99.90
22364;DHT22;11349;53.412;-1.328;2024-01-07T04:42:18;4.10;99.90
22364;DHT22;11349;53.412;-1.328;2024-01-07T04:44:44;4.00;99.90
22364;DHT22;11349;53.412;-1.328;2024-01-07T04:47:29;4.00;99.90
22364;DHT22;11349;53.412;-1.328;2024-01-07T04:49:56;4.00;99.90
22364;DHT22;11349;53.412;-1.328;2024-01-07T04:52:22;4.00;99.90
22364;DHT22;11349;53.412;-1.328;2024-01-07T04:54:50;4.00;99.90
22364;DHT22;11349;53.412;-1.328;2024-01-07T04:57:15;4.00;99.90
22364;DHT22;11349;53.412;-1.328;2024-01-07T04:59:41;4.10;99.90
22364;DHT22;11349;53.412;-1.328;2024-01-07T05:02:07;4.00;99.90
22364;DHT22;11349;53.412;-1.328;2024-01-07T05:04:32;4.10;99.90
22364;DHT22;11349;53.412;-1.328;2024-01-07T05:06:58;4.00;99.90
22364;DHT22;11349;53.412;-1.328;2024-01-07T05:09:24;3.90;99.90
22364;DHT22;11349;53.412;-1.328;2024-01-07T05:11:50;3.90;99.90
22364;DHT22;11349;53.412;-1.328;2024-01-07T05:14:15;3.70;99.90
22364;DHT22;11349;53.412;-1.328;2024-01-07T05:16:41;3.80;99.90
22364;DHT22;11349;53.412;-1.328;2024-01-07T05:19:07;3.70;99.90
22364;DHT22;11349;53.412;-1.328;2024-01-07T05:21:32;3.90;99.90
22364;DHT22;11349;53.412;-1.328;2024-01-07T05:23:58;3.90;99.90
22364;DHT22;11349;53.412;-1.328;2024-01-07T05:26:24;3.80;99.90
22364;DHT22;11349;53.412;-1.328;2024-01-07T05:28:49;3.80;99.90
22364;DHT22;11349;53.412;-1.328;2024-01-07T05:31:18;3.80;99.90
22364;DHT22;11349;53.412;-1.328;2024-01-07T05:33:45;3.90;99.90
22364;DHT22;11349;53.412;-1.328;2024-01-07T05:36:11;3.80;99.90
22364;DHT22;11349;53.412;-1.328;2024-01-07T05:38:37;3.80;99.90
22364;DHT22;11349;53.412;-1.328;2024-01-07T05:41:03;3.80;99.90
22364;DHT22;11349;53.412;-1.328;2024-01-07T05:43:29;3.80;99.90
22364;DHT22;11349;53.412;-1.328;2024-01-07T05:45:54;3.80;99.90
22364;DHT22;11349;53.412;-1.328;2024-01-07T05:48:23;3.70;99.90
22364;DHT22;11349;53.412;-1.328;2024-01-07T05:50:49;3.70;99.90
22364;DHT22;11349;53.412;-1.328;2024-01-07T05:53:16;3.80;99.90
22364;DHT22;11349;53.412;-1.328;2024-01-07T05:55:42;3.80;99.90
22364;DHT22;11349;53.412;-1.328;2024-01-07T05:58:08;3.70;99.90
22364;DHT22;11349;53.412;-1.328;2024-01-07T06:00:34;3.70;99.90
22364;DHT22;11349;53.412;-1.328;2024-01-07T06:02:59;3.70;99.90
22364;DHT22;11349;53.412;-1.328;2024-01-07T06:05:26;3.70;99.90
22364;DHT22;11349;53.412;-1.328;2024-01-07T06:07:51;3.80;99.90
22364;DHT22;11349;53.412;-1.328;2024-01-07T06:10:17;3.80;99.90
22364;DHT22;11349;53.412;-1.328;2024-01-07T06:12:43;3.70;99.90
22364;DHT22;11349;53.412;-1.328;2024-01-07T06:15:09;3.80;99.90
22364;DHT22;11349;53.412;-1.328;2024-01-07T06:17:35;3.70;99.90
22364;DHT22;11349;53.412;-1.328;2024-01-07T06:20:00;3.70;99.90
22364;DHT22;11349;53.412;-1.328;2024-01-07T06:22:26;3.70;99.90
22364;DHT22;11349;53.412;-1.328;2024-01-07T06:24:52;3.80;99.90
22364;DHT22;11349;53.412;-1.328;2024-01-07T06:27:17;3.80;99.90
22364;DHT22;11349;53.412;-1.328;2024-01-07T06:29:43;3.70;99.90
22364;DHT22;11349;53.412;-1.328;2024-01-07T06:32:09;3.70;99.90
22364;DHT22;11349;53.412;-1.328;2024-01-07T06:34:37;3.70;99.90
22364;DHT22;11349;53.412;-1.328;2024-01-07T06:37:03;3.80;99.90
22364;DHT22;11349;53.412;-1.328;2024-01-07T06:39:29;3.80;99.90
22364;DHT22;11349;53.412;-1.328;2024-01-07T06:41:54;3.80;99.90
22364;DHT22;11349;53.412;-1.328;2024-01-07T06:44:20;3.80;99.90
22364;DHT22;11349;53.412;-1.328;2024-01-07T06:46:46;3.70;99.90
22364;DHT22;11349;53.412;-1.328;2024-01-07T06:49:12;3.80;99.90
22364;DHT22;11349;53.412;-1.328;2024-01-07T06:51:38;3.70;99.90
22364;DHT22;11349;53.412;-1.328;2024-01-07T06:54:04;3.70;99.90
22364;DHT22;11349;53.412;-1.328;2024-01-07T06:56:30;3.70;99.90
22364;DHT22;11349;53.412;-1.328;2024-01-07T06:58:56;3.70;99.90
22364;DHT22;11349;53.412;-1.328;2024-01-07T07:01:22;3.70;99.90
22364;DHT22;11349;53.412;-1.328;2024-01-07T07:03:49;3.70;99.90
22364;DHT22;11349;53.412;-1.328;2024-01-07T07:06:15;3.70;99.90
22364;DHT22;11349;53.412;-1.328;2024-01-07T07:08:41;3.70;99.90
22364;DHT22;11349;53.412;-1.328;2024-01-07T07:11:06;3.70;99.90
22364;DHT22;11349;53.412;-1.328;2024-01-07T07:13:32;3.70;99.90
22364;DHT22;11349;53.412;-1.328;2024-01-07T07:15:59;3.80;99.90
22364;DHT22;11349;53.412;-1.328;2024-01-07T07:18:25;3.70;99.90
22364;DHT22;11349;53.412;-1.328;2024-01-07T07:20:50;3.80;99.90
22364;DHT22;11349;53.412;-1.328;2024-01-07T07:23:17;3.80;99.90
22364;DHT22;11349;53.412;-1.328;2024-01-07T07:25:42;3.80;99.90
22364;DHT22;11349;53.412;-1.328;2024-01-07T07:28:08;3.70;99.90
22364;DHT22;11349;53.412;-1.328;2024-01-07T07:30:34;3.70;99.90
22364;DHT22;11349;53.412;-1.328;2024-01-07T07:32:59;3.70;99.90
22364;DHT22;11349;53.412;-1.328;2024-01-07T07:35:25;3.70;99.90
22364;DHT22;11349;53.412;-1.328;2024-01-07T07:37:51;3.70;99.90
22364;DHT22;11349;53.412;-1.328;2024-01-07T07:40:16;3.70;99.90
22364;DHT22;11349;53.412;-1.328;2024-01-07T07:42:42;3.70;99.90
22364;DHT22;11349;53.412;-1.328;2024-01-07T07:45:09;3.70;99.90
22364;DHT22;11349;53.412;-1.328;2024-01-07T07:47:34;3.80;99.90
22364;DHT22;11349;53.412;-1.328;2024-01-07T07:50:00;3.80;99.90
22364;DHT22;11349;53.412;-1.328;2024-01-07T07:52:27;3.70;99.90
22364;DHT22;11349;53.412;-1.328;2024-01-07T07:54:53;3.70;99.90
22364;DHT22;11349;53.412;-1.328;2024-01-07T07:57:20;3.70;99.90
22364;DHT22;11349;53.412;-1.328;2024-01-07T07:59:50;3.70;99.90
22364;DHT22;11349;53.412;-1.328;2024-01-07T08:02:17;3.80;99.90
22364;DHT22;11349;53.412;-1.328;2024-01-07T08:04:43;3.80;99.90
22364;DHT22;11349;53.412;-1.328;2024-01-07T08:07:09;3.80;99.90
22364;DHT22;11349;53.412;-1.328;2024-01-07T08:09:35;3.70;99.90
22364;DHT22;11349;53.412;-1.328;2024-01-07T08:12:05;3.70;99.90
22364;DHT22;11349;53.412;-1.328;2024-01-07T08:14:32;3.80;99.90
22364;DHT22;11349;53.412;-1.328;2024-01-07T08:16:58;3.70;99.90
22364;DHT22;11349;53.412;-1.328;2024-01-07T08:19:24;3.70;99.90
22364;DHT22;11349;53.412;-1.328;2024-01-07T08:21:53;3.70;99.90
22364;DHT22;11349;53.412;-1.328;2024-01-07T08:24:18;3.70;99.90
22364;DHT22;11349;53.412;-1.328;2024-01-07T08:26:47;3.70;99.90
22364;DHT22;11349;53.412;-1.328;2024-01-07T08:29:13;3.70;99.90
22364;DHT22;11349;53.412;-1.328;2024-01-07T08:31:40;3.70;99.90
22364;DHT22;11349;53.412;-1.328;2024-01-07T08:34:07;3.70;99.90
22364;DHT22;11349;53.412;-1.328;2024-01-07T08:36:33;3.80;99.90
22364;DHT22;11349;53.412;-1.328;2024-01-07T08:38:59;3.80;99.90
22364;DHT22;11349;53.412;-1.328;2024-01-07T08:41:26;3.80;99.90
22364;DHT22;11349;53.412;-1.328;2024-01-07T08:43:51;3.80;99.90
22364;DHT22;11349;53.412;-1.328;2024-01-07T08:46:20;3.80;99.90
22364;DHT22;11349;53.412;-1.328;2024-01-07T08:48:45;3.80;99.90
22364;DHT22;11349;53.412;-1.328;2024-01-07T08:51:11;3.80;99.90
22364;DHT22;11349;53.412;-1.328;2024-01-07T08:53:37;3.90;99.90
22364;DHT22;11349;53.412;-1.328;2024-01-07T08:56:03;3.80;99.90
22364;DHT22;11349;53.412;-1.328;2024-01-07T08:58:28;3.90;99.90
22364;DHT22;11349;53.412;-1.328;2024-01-07T09:00:54;3.90;99.90
22364;DHT22;11349;53.412;-1.328;2024-01-07T09:03:20;3.90;99.90
22364;DHT22;11349;53.412;-1.328;2024-01-07T09:05:46;3.90;99.90
22364;DHT22;11349;53.412;-1.328;2024-01-07T09:08:11;3.90;99.90
22364;DHT22;11349;53.412;-1.328;2024-01-07T09:10:40;3.80;99.90
22364;DHT22;11349;53.412;-1.328;2024-01-07T09:13:05;3.80;99.90
22364;DHT22;11349;53.412;-1.328;2024-01-07T09:15:31;3.90;99.90
22364;DHT22;11349;53.412;-1.328;2024-01-07T09:17:57;3.90;99.90
22364;DHT22;11349;53.412;-1.328;2024-01-07T09:20:23;3.90;99.90
22364;DHT22;11349;53.412;-1.328;2024-01-07T09:22:49;3.90;99.90
22364;DHT22;11349;53.412;-1.328;2024-01-07T09:25:15;3.90;99.90
22364;DHT22;11349;53.412;-1.328;2024-01-07T09:27:42;4.00;99.90
22364;DHT22;11349;53.412;-1.328;2024-01-07T09:30:09;3.90;99.90
22364;DHT22;11349;53.412;-1.328;2024-01-07T09:32:41;3.90;99.90
22364;DHT22;11349;53.412;-1.328;2024-01-07T09:35:07;4.00;99.90
22364;DHT22;11349;53.412;-1.328;2024-01-07T09:37:33;4.10;99.90
22364;DHT22;11349;53.412;-1.328;2024-01-07T09:39:58;4.10;99.90
22364;DHT22;11349;53.412;-1.328;2024-01-07T09:42:24;4.10;99.90
22364;DHT22;11349;53.412;-1.328;2024-01-07T09:44:50;4.00;99.90
22364;DHT22;11349;53.412;-1.328;2024-01-07T09:47:16;4.10;99.90
22364;DHT22;11349;53.412;-1.328;2024-01-07T09:49:43;4.00;99.90
22364;DHT22;11349;53.412;-1.328;2024-01-07T09:52:10;4.00;99.90
22364;DHT22;11349;53.412;-1.328;2024-01-07T09:54:40;4.10;99.90
22364;DHT22;11349;53.412;-1.328;2024-01-07T09:57:07;4.10;99.90
22364;DHT22;11349;53.412;-1.328;2024-01-07T09:59:34;4.20;99.90
22364;DHT22;11349;53.412;-1.328;2024-01-07T10:02:00;4.10;99.90
22364;DHT22;11349;53.412;-1.328;2024-01-07T10:04:27;4.20;99.90
22364;DHT22;11349;53.412;-1.328;2024-01-07T10:06:58;4.20;99.90
22364;DHT22;11349;53.412;-1.328;2024-01-07T10:09:29;4.30;99.90
22364;DHT22;11349;53.412;-1.328;2024-01-07T10:11:54;4.30;99.90
22364;DHT22;11349;53.412;-1.328;2024-01-07T10:14:20;4.20;99.90
22364;DHT22;11349;53.412;-1.328;2024-01-07T10:16:50;4.20;99.90
22364;DHT22;11349;53.412;-1.328;2024-01-07T10:19:23;4.10;99.90
22364;DHT22;11349;53.412;-1.328;2024-01-07T10:22:04;4.20;99.90
22364;DHT22;11349;53.412;-1.328;2024-01-07T10:24:40;4.20;99.90
22364;DHT22;11349;53.412;-1.328;2024-01-07T10:27:08;4.10;99.90
22364;DHT22;11349;53.412;-1.328;2024-01-07T10:29:34;4.20;99.90
22364;DHT22;11349;53.412;-1.328;2024-01-07T10:32:00;4.20;99.90
22364;DHT22;11349;53.412;-1.328;2024-01-07T10:34:37;4.20;99.90
22364;DHT22;11349;53.412;-1.328;2024-01-07T10:37:04;4.20;99.90
22364;DHT22;11349;53.412;-1.328;2024-01-07T10:39:34;4.30;99.90
22364;DHT22;11349;53.412;-1.328;2024-01-07T10:41:59;4.20;99.90
22364;DHT22;11349;53.412;-1.328;2024-01-07T10:44:26;4.30;99.90
22364;DHT22;11349;53.412;-1.328;2024-01-07T10:46:55;4.30;99.90
22364;DHT22;11349;53.412;-1.328;2024-01-07T10:49:22;4.30;99.90
22364;DHT22;11349;53.412;-1.328;2024-01-07T10:52:08;4.30;99.90
22364;DHT22;11349;53.412;-1.328;2024-01-07T10:54:37;4.40;99.90
22364;DHT22;11349;53.412;-1.328;2024-01-07T10:57:27;4.40;99.90
22364;DHT22;11349;53.412;-1.328;2024-01-07T10:59:59;4.50;99.90
22364;DHT22;11349;53.412;-1.328;2024-01-07T11:02:26;4.50;99.90
22364;DHT22;11349;53.412;-1.328;2024-01-07T11:05:14;4.50;99.90
22364;DHT22;11349;53.412;-1.328;2024-01-07T11:07:46;4.50;99.90
22364;DHT22;11349;53.412;-1.328;2024-01-07T11:10:22;4.50;99.90
22364;DHT22;11349;53.412;-1.328;2024-01-07T11:12:54;4.50;99.90
22364;DHT22;11349;53.412;-1.328;2024-01-07T11:18:22;4.60;99.90
22364;DHT22;11349;53.412;-1.328;2024-01-07T11:20:49;4.60;99.90
22364;DHT22;11349;53.412;-1.328;2024-01-07T11:23:29;4.50;99.90
22364;DHT22;11349;53.412;-1.328;2024-01-07T11:25:59;4.70;99.90
22364;DHT22;11349;53.412;-1.328;2024-01-07T11:28:54;4.60;99.90
22364;DHT22;11349;53.412;-1.328;2024-01-07T11:34:07;4.60;99.90
22364;DHT22;11349;53.412;-1.328;2024-01-07T11:36:35;4.60;99.90
22364;DHT22;11349;53.412;-1.328;2024-01-07T11:39:02;4.70;99.90
22364;DHT22;11349;53.412;-1.328;2024-01-07T11:41:31;4.60;99.90
22364;DHT22;11349;53.412;-1.328;2024-01-07T11:43:59;4.70;99.90
22364;DHT22;11349;53.412;-1.328;2024-01-07T11:46:26;4.70;99.90
22364;DHT22;11349;53.412;-1.328;2024-01-07T11:48:58;4.60;99.90
22364;DHT22;11349;53.412;-1.328;2024-01-07T11:51:28;4.70;99.90
22364;DHT22;11349;53.412;-1.328;2024-01-07T11:53:59;4.60;99.90
22364;DHT22;11349;53.412;-1.328;2024-01-07T11:56:25;4.80;99.90
22364;DHT22;11349;53.412;-1.328;2024-01-07T11:58:52;4.80;99.90
22364;DHT22;11349;53.412;-1.328;2024-01-07T12:01:20;4.80;99.90
22364;DHT22;11349;53.412;-1.328;2024-01-07T12:03:46;4.80;99.90
22364;DHT22;11349;53.412;-1.328;2024-01-07T12:06:13;4.80;99.90
22364;DHT22;11349;53.412;-1.328;2024-01-07T12:08:43;4.80;99.90
22364;DHT22;11349;53.412;-1.328;2024-01-07T12:11:13;4.80;99.90
22364;DHT22;11349;53.412;-1.328;2024-01-07T12:13:39;4.80;36.30
22364;DHT22;11349;53.412;-1.328;2024-01-07T12:16:06;4.80;34.00
22364;DHT22;11349;53.412;-1.328;2024-01-07T12:18:32;4.70;99.90
22364;DHT22;11349;53.412;-1.328;2024-01-07T12:20:58;4.80;99.90
22364;DHT22;11349;53.412;-1.328;2024-01-07T12:23:27;4.90;99.90
22364;DHT22;11349;53.412;-1.328;2024-01-07T12:25:54;4.80;99.90
22364;DHT22;11349;53.412;-1.328;2024-01-07T12:28:21;4.80;99.90
22364;DHT22;11349;53.412;-1.328;2024-01-07T12:30:50;4.80;99.90
22364;DHT22;11349;53.412;-1.328;2024-01-07T12:33:17;4.90;99.90
22364;DHT22;11349;53.412;-1.328;2024-01-07T12:35:47;4.90;99.90
22364;DHT22;11349;53.412;-1.328;2024-01-07T12:38:13;4.90;99.90
22364;DHT22;11349;53.412;-1.328;2024-01-07T12:40:39;4.80;99.90
22364;DHT22;11349;53.412;-1.328;2024-01-07T12:43:05;4.80;99.90
22364;DHT22;11349;53.412;-1.328;2024-01-07T12:45:33;4.80;99.90
22364;DHT22;11349;53.412;-1.328;2024-01-07T12:47:59;4.90;99.90
22364;DHT22;11349;53.412;-1.328;2024-01-07T12:50:28;4.90;99.90
22364;DHT22;11349;53.412;-1.328;2024-01-07T12:52:55;4.90;99.90
22364;DHT22;11349;53.412;-1.328;2024-01-07T12:55:22;5.00;99.90
22364;DHT22;11349;53.412;-1.328;2024-01-07T12:57:48;5.00;99.90
22364;DHT22;11349;53.412;-1.328;2024-01-07T13:00:15;5.00;99.90
22364;DHT22;11349;53.412;-1.328;2024-01-07T13:02:43;5.00;99.90
22364;DHT22;11349;53.412;-1.328;2024-01-07T13:05:09;5.00;99.90
22364;DHT22;11349;53.412;-1.328;2024-01-07T13:07:35;5.00;99.90
22364;DHT22;11349;53.412;-1.328;2024-01-07T13:10:00;5.00;99.90
22364;DHT22;11349;53.412;-1.328;2024-01-07T13:12:26;5.00;99.90
22364;DHT22;11349;53.412;-1.328;2024-01-07T13:14:52;5.00;99.90
22364;DHT22;11349;53.412;-1.328;2024-01-07T13:17:18;5.00;99.90
22364;DHT22;11349;53.412;-1.328;2024-01-07T13:19:44;4.90;99.90
22364;DHT22;11349;53.412;-1.328;2024-01-07T13:22:10;4.90;99.90
22364;DHT22;11349;53.412;-1.328;2024-01-07T13:24:36;5.00;99.90
22364;DHT22;11349;53.412;-1.328;2024-01-07T13:27:02;5.00;99.90
22364;DHT22;11349;53.412;-1.328;2024-01-07T13:29:28;5.10;99.90
22364;DHT22;11349;53.412;-1.328;2024-01-07T13:31:53;5.00;99.90
22364;DHT22;11349;53.412;-1.328;2024-01-07T13:34:19;5.00;99.90
22364;DHT22;11349;53.412;-1.328;2024-01-07T13:36:45;5.00;99.90
22364;DHT22;11349;53.412;-1.328;2024-01-07T13:39:10;5.00;99.90
22364;DHT22;11349;53.412;-1.328;2024-01-07T13:41:36;5.00;99.90
22364;DHT22;11349;53.412;-1.328;2024-01-07T13:44:02;5.00;99.90
22364;DHT22;11349;53.412;-1.328;2024-01-07T13:46:31;5.10;99.90
22364;DHT22;11349;53.412;-1.328;2024-01-07T13:48:57;5.00;99.90
22364;DHT22;11349;53.412;-1.328;2024-01-07T13:51:22;5.00;99.90
22364;DHT22;11349;53.412;-1.328;2024-01-07T13:53:48;4.90;99.90
22364;DHT22;11349;53.412;-1.328;2024-01-07T13:56:14;5.00;99.90
22364;DHT22;11349;53.412;-1.328;2024-01-07T13:58:39;5.00;99.90
22364;DHT22;11349;53.412;-1.328;2024-01-07T14:01:06;4.90;99.90
22364;DHT22;11349;53.412;-1.328;2024-01-07T14:03:32;4.90;99.90
22364;DHT22;11349;53.412;-1.328;2024-01-07T14:05:58;4.90;99.90
22364;DHT22;11349;53.412;-1.328;2024-01-07T14:08:24;4.90;99.90
22364;DHT22;11349;53.412;-1.328;2024-01-07T14:10:50;4.90;99.90
22364;DHT22;11349;53.412;-1.328;2024-01-07T14:13:15;5.00;99.90
22364;DHT22;11349;53.412;-1.328;2024-01-07T14:15:42;5.00;99.90
22364;DHT22;11349;53.412;-1.328;2024-01-07T14:18:08;5.00;99.90
22364;DHT22;11349;53.412;-1.328;2024-01-07T14:20:35;5.00;99.90
22364;DHT22;11349;53.412;-1.328;2024-01-07T14:23:01;5.10;99.90
22364;DHT22;11349;53.412;-1.328;2024-01-07T14:25:27;5.00;99.90
22364;DHT22;11349;53.412;-1.328;2024-01-07T14:27:52;5.00;99.90
22364;DHT22;11349;53.412;-1.328;2024-01-07T14:30:18;5.10;99.90
22364;DHT22;11349;53.412;-1.328;2024-01-07T14:32:44;5.10;99.90
22364;DHT22;11349;53.412;-1.328;2024-01-07T14:35:11;5.00;99.90
22364;DHT22;11349;53.412;-1.328;2024-01-07T14:37:38;5.00;99.90
22364;DHT22;11349;53.412;-1.328;2024-01-07T14:40:06;5.00;99.90
22364;DHT22;11349;53.412;-1.328;2024-01-07T14:42:31;4.90;99.90
22364;DHT22;11349;53.412;-1.328;2024-01-07T14:44:57;4.90;99.90
22364;DHT22;11349;53.412;-1.328;2024-01-07T14:47:23;4.90;99.90
22364;DHT22;11349;53.412;-1.328;2024-01-07T14:49:49;4.90;99.90
22364;DHT22;11349;53.412;-1.328;2024-01-07T14:52:15;4.90;99.90
22364;DHT22;11349;53.412;-1.328;2024-01-07T14:54:40;4.90;99.90
22364;DHT22;11349;53.412;-1.328;2024-01-07T14:57:06;4.90;99.90
22364;DHT22;11349;53.412;-1.328;2024-01-07T14:59:34;4.90;99.90
22364;DHT22;11349;53.412;-1.328;2024-01-07T15:02:01;4.90;99.90
22364;DHT22;11349;53.412;-1.328;2024-01-07T15:04:29;4.90;99.90
22364;DHT22;11349;53.412;-1.328;2024-01-07T15:06:55;4.90;99.90
22364;DHT22;11349;53.412;-1.328;2024-01-07T15:09:22;4.90;99.90
22364;DHT22;11349;53.412;-1.328;2024-01-07T15:11:48;5.00;99.90
22364;DHT22;11349;53.412;-1.328;2024-01-07T15:14:14;4.90;99.90
22364;DHT22;11349;53.412;-1.328;2024-01-07T15:16:40;4.80;99.90
22364;DHT22;11349;53.412;-1.328;2024-01-07T15:19:06;4.80;99.90
22364;DHT22;11349;53.412;-1.328;2024-01-07T15:21:32;4.90;99.90
22364;DHT22;11349;53.412;-1.328;2024-01-07T15:23:58;4.80;99.90
22364;DHT22;11349;53.412;-1.328;2024-01-07T15:26:23;4.80;99.90
22364;DHT22;11349;53.412;-1.328;2024-01-07T15:28:49;4.80;99.90
22364;DHT22;11349;53.412;-1.328;2024-01-07T15:31:15;4.70;99.90
22364;DHT22;11349;53.412;-1.328;2024-01-07T15:33:41;4.60;99.90